Time;durP1;ratioP1;P1;durP2;ratioP2;P2;SDS_P1;SDS_P2;PMS_P1;PMS_P2;Temp;Humidity;BMP_temperature;BMP_pressure;BME280_temperature;BME280_humidity;BME280_pressure;Samples;Min_cycle;Max_cycle;Signal;HPM_P1;HPM_P2
2022/06/21 00:00:11;;;;;;;3.47;2.05;;;13.20;99.90;;;;;;10289421;28;20213;-82
2022/06/21 00:05:36;;;;;;;5.93;1.70;;;13.10;99.90;;;;;;10244995;28;20239;-81
2022/06/21 00:10:58;;;;;;;3.70;2.03;;;13.10;99.90;;;;;;10272485;28;20209;-82
2022/06/21 00:16:21;;;;;;;1.67;1.20;;;13.00;99.90;;;;;;10237039;29;20513;-82
2022/06/21 00:21:42;;;;;;;2.97;1.50;;;12.80;99.90;;;;;;10257701;28;20285;-82
2022/06/21 00:27:10;;;;;;;2.57;1.30;;;12.80;99.90;;;;;;10244126;28;20242;-83
2022/06/21 00:32:31;;;;;;;2.10;1.30;;;12.80;99.90;;;;;;10263179;28;20260;-83
2022/06/21 00:37:53;;;;;;;3.45;1.33;;;12.70;99.90;;;;;;10252666;28;20319;-82
2022/06/21 00:43:28;;;;;;;2.53;1.60;;;12.70;99.90;;;;;;10270488;28;20265;-82
2022/06/21 00:48:51;;;;;;;3.00;1.57;;;12.50;99.90;;;;;;10293558;28;20233;-82
2022/06/21 00:54:33;;;;;;;1.00;0.90;;;12.50;99.90;;;;;;10275912;28;20285;-83
2022/06/21 00:59:58;;;;;;;1.48;1.00;;;12.50;99.90;;;;;;10282441;28;20206;-83
2022/06/21 01:05:21;;;;;;;1.43;0.80;;;12.50;99.90;;;;;;10244571;28;20537;-82
2022/06/21 01:10:45;;;;;;;1.17;0.90;;;12.60;99.90;;;;;;10268979;28;20390;-82
2022/06/21 01:16:07;;;;;;;0.90;0.90;;;12.50;99.90;;;;;;10241941;28;20215;-82
2022/06/21 01:21:30;;;;;;;2.90;1.23;;;12.60;99.90;;;;;;10267879;28;20437;-82
2022/06/21 01:27:01;;;;;;;3.40;1.37;;;12.50;99.90;;;;;;10244354;28;20321;-82
2022/06/21 01:32:23;;;;;;;3.23;1.37;;;12.50;99.90;;;;;;10224221;28;20296;-82
2022/06/21 01:37:45;;;;;;;1.20;1.10;;;12.40;99.90;;;;;;10271718;29;20202;-83
2022/06/21 01:43:11;;;;;;;1.63;1.05;;;12.40;99.90;;;;;;10261740;28;20243;-82
2022/06/21 01:48:38;;;;;;;2.83;1.30;;;12.40;99.90;;;;;;10258729;28;20632;-82
2022/06/21 01:54:02;;;;;;;1.60;1.10;;;12.40;99.90;;;;;;10265942;28;20217;-83
2022/06/21 01:59:32;;;;;;;2.57;1.47;;;12.40;99.90;;;;;;10260855;28;20213;-83
2022/06/21 02:05:05;;;;;;;2.33;1.10;;;12.40;99.90;;;;;;10227056;28;20508;-82
2022/06/21 02:10:40;;;;;;;2.03;1.20;;;12.40;99.90;;;;;;10252195;28;20201;-82
2022/06/21 02:16:07;;;;;;;2.20;1.10;;;12.30;99.90;;;;;;10282917;28;20198;-82
2022/06/21 02:21:37;;;;;;;1.90;1.30;;;12.30;99.90;;;;;;10254989;28;20405;-82
2022/06/21 02:27:01;;;;;;;3.83;1.40;;;12.30;99.90;;;;;;10251536;28;20447;-82
2022/06/21 02:32:36;;;;;;;4.97;1.37;;;12.20;99.90;;;;;;10245445;28;20242;-82
2022/06/21 02:38:01;;;;;;;2.33;1.40;;;12.20;99.90;;;;;;10251303;28;20225;-82
2022/06/21 02:43:35;;;;;;;1.80;0.83;;;12.20;99.90;;;;;;10246284;28;20201;-81
2022/06/21 02:49:05;;;;;;;2.20;1.30;;;12.10;99.90;;;;;;10294186;28;20233;-82
2022/06/21 02:54:33;;;;;;;1.27;0.90;;;12.10;99.90;;;;;;10302501;28;20210;-82
2022/06/21 02:59:56;;;;;;;2.23;1.30;;;12.10;99.90;;;;;;10275675;28;20220;-82
2022/06/21 03:05:21;;;;;;;3.40;1.20;;;12.10;99.90;;;;;;10235407;28;20226;-82
2022/06/21 03:10:47;;;;;;;2.40;1.20;;;12.00;99.90;;;;;;10259233;28;20206;-83
2022/06/21 03:16:13;;;;;;;2.03;1.00;;;11.90;99.90;;;;;;10266188;28;20197;-82
2022/06/21 03:21:35;;;;;;;3.90;1.33;;;11.90;99.90;;;;;;10295738;28;20237;-81
2022/06/21 03:27:08;;;;;;;2.30;1.07;;;11.90;99.90;;;;;;10242497;28;20557;-82
2022/06/21 03:32:34;;;;;;;0.97;0.80;;;11.90;99.90;;;;;;10240465;29;20230;-82
2022/06/21 03:37:56;;;;;;;2.10;0.93;;;11.80;99.90;;;;;;10257717;28;20508;-82
2022/06/21 03:43:30;;;;;;;5.67;1.17;;;11.70;99.90;;;;;;10258883;29;20209;-82
2022/06/21 03:49:07;;;;;;;1.93;1.23;;;11.70;99.90;;;;;;10242875;28;20264;-82
2022/06/21 03:54:37;;;;;;;3.83;1.03;;;11.70;99.90;;;;;;10276145;28;20210;-82
2022/06/21 04:00:09;;;;;;;6.77;1.10;;;11.70;99.90;;;;;;10248340;28;20185;-83
2022/06/21 04:05:47;;;;;;;1.27;1.10;;;11.70;99.90;;;;;;10253528;28;20228;-82
2022/06/21 04:11:25;;;;;;;3.47;1.50;;;11.70;99.90;;;;;;10246715;28;20241;-82
2022/06/21 04:16:55;;;;;;;4.83;1.30;;;11.60;99.90;;;;;;10240127;28;20210;-82
2022/06/21 04:22:54;;;;;;;2.33;1.13;;;11.70;99.90;;;;;;10298606;28;20274;-82
2022/06/21 04:28:27;;;;;;;3.03;1.67;;;11.70;99.90;;;;;;10257869;28;20242;-82
2022/06/21 04:34:00;;;;;;;5.07;1.43;;;11.70;99.90;;;;;;10270003;28;20266;-82
2022/06/21 04:39:32;;;;;;;4.17;1.20;;;11.70;99.90;;;;;;10238817;28;20220;-82
2022/06/21 04:45:04;;;;;;;1.40;0.80;;;11.70;99.90;;;;;;10258187;28;20209;-82
2022/06/21 04:50:31;;;;;;;3.23;1.10;;;11.80;99.90;;;;;;10280468;28;20217;-82
2022/06/21 04:56:07;;;;;;;4.60;1.07;;;12.00;99.90;;;;;;10276029;28;20245;-82
2022/06/21 05:01:37;;;;;;;4.40;1.57;;;12.00;99.90;;;;;;10303268;28;20226;-82
2022/06/21 05:07:04;;;;;;;1.83;1.07;;;12.10;99.90;;;;;;10288919;28;20256;-82
2022/06/21 05:12:34;;;;;;;3.83;1.37;;;12.20;99.90;;;;;;10264416;28;20231;-82
2022/06/21 05:18:02;;;;;;;2.57;0.97;;;12.30;99.90;;;;;;10306335;28;20202;-82
2022/06/21 05:23:24;;;;;;;2.30;1.00;;;12.40;99.90;;;;;;10298777;28;20502;-82
2022/06/21 05:29:01;;;;;;;2.30;1.00;;;12.40;99.90;;;;;;10261894;28;20234;-82
2022/06/21 05:34:29;;;;;;;2.10;1.10;;;12.50;99.90;;;;;;10319768;28;20208;-82
2022/06/21 05:39:52;;;;;;;1.23;0.73;;;12.50;99.90;;;;;;10285058;28;20201;-82
2022/06/21 05:45:15;;;;;;;2.20;1.00;;;12.60;99.90;;;;;;10292042;28;20217;-82
2022/06/21 05:50:37;;;;;;;2.43;0.93;;;12.70;99.90;;;;;;10281421;28;20212;-82
2022/06/21 05:56:04;;;;;;;1.77;0.80;;;12.90;99.90;;;;;;10297504;28;20456;-82
2022/06/21 06:01:37;;;;;;;2.03;0.90;;;13.20;99.60;;;;;;10293920;28;20206;-82
2022/06/21 06:07:00;;;;;;;2.50;0.70;;;13.50;76.00;;;;;;10326621;28;20256;-83
2022/06/21 06:12:25;;;;;;;3.53;0.90;;;13.60;27.40;;;;;;10307525;28;20209;-82
2022/06/21 06:18:19;;;;;;;4.57;0.90;;;13.60;26.10;;;;;;10335632;28;20205;-83
2022/06/21 06:23:55;;;;;;;1.42;0.80;;;13.70;29.80;;;;;;10301710;28;20209;-83
2022/06/21 06:29:18;;;;;;;2.15;0.98;;;13.70;27.00;;;;;;10332014;28;20244;-83
2022/06/21 06:34:45;;;;;;;3.47;1.02;;;13.80;22.70;;;;;;10295962;28;20239;-83
2022/06/21 06:40:21;;;;;;;2.47;1.05;;;13.80;28.10;;;;;;10282723;28;20466;-83
2022/06/21 06:45:43;;;;;;;1.02;0.70;;;14.00;19.00;;;;;;10313584;28;20208;-83
2022/06/21 06:51:37;;;;;;;2.97;0.90;;;14.10;1.00;;;;;;10327783;28;20208;-82
2022/06/21 06:57:27;;;;;;;6.18;1.17;;;14.10;7.30;;;;;;10315024;28;20215;-82
2022/06/21 07:03:10;;;;;;;3.45;1.13;;;14.00;18.20;;;;;;10283132;28;20217;-81
2022/06/21 07:08:45;;;;;;;3.42;1.02;;;;;;;;;;10294125;28;20654;-81
2022/06/21 07:14:20;;;;;;;5.10;1.52;;;14.70;36.50;;;;;;10312195;28;20225;-80
2022/06/21 07:19:42;;;;;;;4.35;0.90;;;;;;;;;;10303502;28;20219;-82
2022/06/21 07:25:55;;;;;;;2.72;1.02;;;15.70;1.00;;;;;;10281526;28;20241;-81
2022/06/21 07:31:26;;;;;;;2.30;1.17;;;15.70;1.00;;;;;;10173199;29;20257;-83
2022/06/21 07:37:16;;;;;;;2.38;1.05;;;15.90;1.00;;;;;;10163833;29;20224;-81
2022/06/21 07:42:45;;;;;;;3.42;1.33;;;16.20;1.00;;;;;;10157922;29;20215;-80
2022/06/21 07:48:19;;;;;;;2.60;1.70;;;16.10;1.00;;;;;;10152929;29;20243;-88
2022/06/21 07:53:48;;;;;;;6.60;1.40;;;15.90;1.00;;;;;;10163023;29;20881;-80
2022/06/21 07:59:21;;;;;;;8.13;3.42;;;16.10;1.00;;;;;;10150169;29;20520;-82
2022/06/21 08:10:52;;;;;;;6.05;1.25;;;18.30;1.00;;;;;;10328773;28;20209;-81
2022/06/21 08:16:33;;;;;;;3.20;1.00;;;18.70;1.00;;;;;;10296587;28;20224;-80
2022/06/21 08:22:13;;;;;;;2.83;1.27;;;17.90;1.00;;;;;;10309641;28;20211;-80
2022/06/21 08:27:45;;;;;;;4.68;1.85;;;17.20;1.00;;;;;;10313045;28;20234;-82
2022/06/21 08:33:28;;;;;;;4.35;1.63;;;17.10;1.00;;;;;;10322313;28;20240;-83
2022/06/21 08:38:55;;;;;;;5.20;1.20;;;16.80;1.00;;;;;;10274591;28;20557;-81
2022/06/21 08:44:31;;;;;;;2.95;1.30;;;17.00;1.00;;;;;;10299279;28;20443;-83
2022/06/21 08:50:02;;;;;;;5.05;2.15;;;17.30;1.00;;;;;;10289514;28;20573;-83
2022/06/21 08:55:42;;;;;;;2.63;1.40;;;16.90;1.00;;;;;;10278712;28;20339;-81
2022/06/21 09:01:16;;;;;;;2.92;1.00;;;17.20;1.00;;;;;;10293320;28;20206;-83
2022/06/21 09:06:43;;;;;;;2.85;1.08;;;18.70;1.00;;;;;;10321017;28;20377;-83
2022/06/21 09:12:30;;;;;;;2.00;0.85;;;18.90;73.20;;;;;;10315113;28;20235;-82
2022/06/21 09:17:54;;;;;;;1.05;0.95;;;18.20;78.80;;;;;;10290060;28;20408;-86
2022/06/21 09:23:37;;;;;;;3.13;1.30;;;18.80;30.50;;;;;;10296299;28;20532;-83
2022/06/21 09:29:14;;;;;;;3.83;1.13;;;19.00;25.20;;;;;;10318053;28;20250;-83
2022/06/21 09:34:44;;;;;;;1.70;0.88;;;19.20;24.40;;;;;;10306278;28;20207;-84
2022/06/21 09:40:09;;;;;;;1.05;0.95;;;19.60;1.00;;;;;;10308880;28;20229;-85
2022/06/21 09:45:57;;;;;;;3.45;0.95;;;20.60;1.00;;;;;;10301596;28;20244;-81
2022/06/21 09:51:46;;;;;;;2.10;0.80;;;21.50;1.00;;;;;;10260314;28;20218;-82
2022/06/21 09:57:32;;;;;;;1.75;0.90;;;22.00;99.90;;;;;;10314473;28;20217;-82
2022/06/21 10:03:08;;;;;;;8.80;1.40;;;22.20;1.00;;;;;;10303208;28;20210;-88
2022/06/21 10:08:42;;;;;;;2.03;1.05;;;22.00;1.00;;;;;;10299629;28;20250;-83
2022/06/21 10:14:15;;;;;;;2.22;0.95;;;22.10;1.00;;;;;;10323026;28;20432;-85
2022/06/21 10:19:55;;;;;;;3.85;1.30;;;22.50;1.00;;;;;;10308479;28;20253;-83
2022/06/21 10:25:25;;;;;;;2.60;1.60;;;23.00;1.00;;;;;;10312086;28;20234;-83
2022/06/21 10:31:16;;;;;;;3.47;1.02;;;23.00;1.00;;;;;;10324998;28;20322;-84
2022/06/21 10:36:55;;;;;;;2.08;1.20;;;22.40;1.00;;;;;;10337520;28;20279;-79
2022/06/21 10:42:47;;;;;;;2.85;0.90;;;21.00;1.00;;;;;;10313406;28;20256;-83
2022/06/21 10:48:33;;;;;;;2.50;0.80;;;19.90;99.90;;;;;;10314760;28;20241;-84
2022/06/21 10:54:13;;;;;;;2.38;0.80;;;20.20;1.00;;;;;;10302283;28;20297;-83
2022/06/21 11:06:27;;;;;;;3.80;0.88;;;21.20;99.90;;;;;;10293670;28;20479;-83
2022/06/21 11:12:52;;;;;;;0.93;0.50;;;20.00;1.00;;;;;;10260152;29;20458;-83
2022/06/21 11:18:10;;;;;;;1.63;0.75;;;19.60;1.00;;;;;;10231846;29;20215;-84
2022/06/21 11:23:55;;;;;;;1.95;1.10;;;20.90;99.90;;;;;;10208470;29;20220;-82
2022/06/21 11:29:26;;;;;;;1.60;0.80;;;21.10;1.00;;;;;;10222608;29;20675;-84
2022/06/21 11:35:09;;;;;;;1.25;0.82;;;20.60;1.00;;;;;;10212023;28;20318;-84
2022/06/21 11:40:39;;;;;;;2.97;1.70;;;20.40;99.90;;;;;;10231660;29;20572;-84
2022/06/21 11:46:15;;;;;;;1.52;0.70;;;21.10;99.90;;;;;;10253871;28;20272;-86
2022/06/21 11:51:46;;;;;;;3.88;1.33;;;20.30;1.00;;;;;;10288066;28;20214;-87
2022/06/21 11:57:19;;;;;;;1.67;1.10;;;20.70;99.90;;;;;;10327470;28;20198;-82
2022/06/21 12:02:55;;;;;;;1.42;0.90;;;21.30;1.00;;;;;;10314349;28;20199;-82
2022/06/21 12:08:39;;;;;;;3.00;0.98;;;21.20;99.90;;;;;;10249026;28;20269;-85
2022/06/21 12:14:40;;;;;;;0.70;0.65;;;21.80;1.00;;;;;;10270315;28;20207;-88
2022/06/21 12:20:09;;;;;;;3.35;0.98;;;22.30;1.00;;;;;;10314054;28;20252;-86
2022/06/21 12:25:31;;;;;;;2.35;0.95;;;22.00;44.70;;;;;;10284902;28;20214;-84
2022/06/21 12:30:53;;;;;;;0.60;0.60;;;22.50;1.00;;;;;;10293397;28;20254;-84
2022/06/21 12:36:25;;;;;;;2.60;0.55;;;22.80;1.00;;;;;;10276427;28;20187;-84
2022/06/21 12:41:53;;;;;;;1.02;0.70;;;22.00;99.90;;;;;;10312835;28;20198;-88
2022/06/21 12:47:32;;;;;;;3.83;0.77;;;21.20;1.00;;;;;;10305104;28;20257;-86
2022/06/21 12:53:31;;;;;;;3.72;1.05;;;21.20;99.90;;;;;;10309124;28;20270;-88
2022/06/21 12:59:17;;;;;;;0.90;0.60;;;21.50;1.00;;;;;;10306239;28;20446;-88
2022/06/21 13:04:51;;;;;;;1.30;0.60;;;21.40;1.00;;;;;;10267013;28;20242;-86
2022/06/21 13:10:21;;;;;;;1.38;0.98;;;21.90;99.90;;;;;;10265411;28;20237;-89
2022/06/21 13:16:13;;;;;;;4.18;0.60;;;21.60;1.00;;;;;;10303908;28;20206;-89
2022/06/21 13:21:40;;;;;;;3.20;0.63;;;21.80;1.00;;;;;;10282197;28;20194;-88
2022/06/21 13:27:04;;;;;;;1.48;0.80;;;21.30;1.00;;;;;;10298745;28;20285;-89
2022/06/21 13:32:32;;;;;;;2.42;0.80;;;21.30;12.30;;;;;;10283263;28;20249;-88
2022/06/21 13:38:11;;;;;;;1.30;0.63;;;21.70;99.90;;;;;;10294025;28;20194;-83
2022/06/21 13:43:46;;;;;;;3.60;0.47;;;21.20;1.00;;;;;;10286042;28;20218;-88
2022/06/21 13:49:24;;;;;;;0.88;0.70;;;20.60;1.00;;;;;;10284439;28;20559;-83
2022/06/21 13:54:52;;;;;;;3.45;1.10;;;20.40;1.00;;;;;;10281144;28;20293;-87
2022/06/21 14:00:16;;;;;;;1.65;0.85;;;20.30;99.90;;;;;;10293430;28;20281;-84
2022/06/21 14:05:46;;;;;;;0.70;0.50;;;20.70;1.00;;;;;;10275929;28;20237;-86
2022/06/21 14:11:37;;;;;;;9.13;6.18;;;21.00;1.00;;;;;;10280324;28;20313;-85
2022/06/21 14:17:09;;;;;;;2.33;0.93;;;21.10;1.00;;;;;;10302122;28;20221;-81
2022/06/21 14:22:36;;;;;;;0.85;0.60;;;20.60;1.00;;;;;;10263062;28;20199;-85
2022/06/21 14:28:14;;;;;;;3.08;0.90;;;20.30;18.00;;;;;;10268318;28;20237;-85
2022/06/21 14:33:55;;;;;;;1.40;1.08;;;20.30;99.90;;;;;;10276953;28;20254;-81
2022/06/21 14:39:27;;;;;;;1.67;0.98;;;20.10;99.90;;;;;;10296041;28;20214;-87
2022/06/21 14:44:56;;;;;;;2.28;1.25;;;20.30;99.90;;;;;;10279717;28;20207;-87
2022/06/21 14:50:30;;;;;;;1.45;0.90;;;20.40;1.00;;;;;;10299199;28;20233;-85
2022/06/21 14:56:25;;;;;;;1.52;1.00;;;20.20;1.00;;;;;;10282499;28;20205;-89
2022/06/21 15:01:47;;;;;;;3.08;1.00;;;19.90;1.00;;;;;;10299000;28;20509;-85
2022/06/21 15:07:15;;;;;;;3.50;1.40;;;19.60;99.90;;;;;;10301261;28;20229;-86
2022/06/21 15:12:43;;;;;;;2.47;1.73;;;19.70;50.80;;;;;;10297658;28;20464;-86
2022/06/21 15:18:09;;;;;;;0.88;0.88;;;19.90;73.80;;;;;;10296391;28;20198;-86
2022/06/21 15:23:42;;;;;;;0.85;0.80;;;20.00;99.90;;;;;;10330796;28;20278;-86
2022/06/21 15:29:29;;;;;;;2.22;1.25;;;19.90;1.00;;;;;;10350712;28;20242;-85
2022/06/21 15:34:54;;;;;;;2.83;1.23;;;20.00;1.00;;;;;;10266966;28;20203;-84
2022/06/21 15:40:42;;;;;;;2.10;1.00;;;20.00;1.00;;;;;;10279226;28;20226;-84
2022/06/21 15:46:16;;;;;;;0.70;0.70;;;20.00;1.00;;;;;;10321243;28;20190;-85
2022/06/21 15:52:04;;;;;;;1.30;1.10;;;20.00;1.00;;;;;;10277065;28;20234;-85
2022/06/21 15:57:43;;;;;;;3.35;1.45;;;19.90;4.30;;;;;;10320779;28;20213;-85
2022/06/21 16:03:19;;;;;;;3.03;1.33;;;19.90;1.00;;;;;;10302785;28;20378;-84
2022/06/21 16:08:47;;;;;;;3.92;1.10;;;19.70;1.00;;;;;;10287173;28;20429;-84
2022/06/21 16:14:17;;;;;;;1.38;1.17;;;19.70;99.90;;;;;;10289221;28;20205;-84
2022/06/21 16:19:52;;;;;;;1.48;1.00;;;19.80;50.70;;;;;;10288696;28;20209;-84
2022/06/21 16:25:22;;;;;;;6.20;1.30;;;19.70;1.00;;;;;;10288244;28;20198;-86
2022/06/21 16:37:01;;;;;;;1.70;1.08;;;19.60;35.90;;;;;;10290845;28;20191;-85
2022/06/21 16:48:26;;;;;;;2.03;1.30;;;19.40;1.00;;;;;;10301018;28;20225;-84
2022/06/21 16:53:58;;;;;;;1.60;1.15;;;19.30;1.00;;;;;;10309448;28;20190;-84
2022/06/21 16:59:23;;;;;;;1.70;1.30;;;19.20;99.90;;;;;;10298037;28;20222;-83
2022/06/21 17:05:06;;;;;;;1.67;1.33;;;19.10;1.00;;;;;;10292786;28;20209;-84
2022/06/21 17:16:45;;;;;;;2.45;1.38;;;19.00;1.00;;;;;;10312226;28;20204;-83
2022/06/21 17:22:14;;;;;;;1.30;1.13;;;19.00;99.90;;;;;;10329060;28;20276;-83
2022/06/21 17:28:04;;;;;;;1.80;1.30;;;18.80;99.90;;;;;;10293556;28;20226;-84
2022/06/21 17:33:43;;;;;;;3.30;1.42;;;18.60;1.00;;;;;;10271858;28;20262;-84
2022/06/21 17:39:18;;;;;;;1.77;1.30;;;18.60;1.00;;;;;;10276845;28;20199;-84
2022/06/21 17:44:46;;;;;;;1.63;1.45;;;18.60;99.90;;;;;;10294120;28;20209;-82
2022/06/21 17:50:14;;;;;;;2.92;1.77;;;18.40;1.00;;;;;;10313092;28;20230;-83
2022/06/21 17:55:49;;;;;;;2.17;1.08;;;18.40;1.00;;;;;;10313229;28;20206;-84
2022/06/21 18:01:38;;;;;;;1.77;1.23;;;18.30;99.90;;;;;;10300243;28;20190;-83
2022/06/21 18:07:07;;;;;;;1.33;1.23;;;18.20;99.90;;;;;;10313380;28;20197;-81
2022/06/21 18:13:01;;;;;;;1.90;1.55;;;18.10;1.00;;;;;;10300942;28;20206;-83
2022/06/21 18:19:05;;;;;;;2.25;1.85;;;18.10;1.00;;;;;;10312341;28;20233;-83
2022/06/21 18:25:19;;;;;;;5.22;2.38;;;17.90;1.00;;;;;;10313038;28;20198;-82
2022/06/21 18:30:52;;;;;;;2.60;2.20;;;17.90;1.00;;;;;;10175992;29;20303;-82
2022/06/21 18:36:47;;;;;;;2.53;2.30;;;17.80;1.00;;;;;;10162997;29;20438;-83
2022/06/21 18:50:14;;;;;;;5.63;2.75;;;17.60;99.90;;;;;;10122387;29;20256;-83
2022/06/21 18:56:22;;;;;;;12.77;6.25;;;17.50;1.00;;;;;;10104718;29;20208;-84
2022/06/21 19:02:02;;;;;;;12.80;5.85;;;17.40;99.90;;;;;;10121941;29;20264;-84
2022/06/21 19:13:24;;;;;;;8.52;3.30;;;17.20;1.00;;;;;;10183830;29;20525;-83
2022/06/21 19:19:26;;;;;;;5.28;2.88;;;17.10;1.00;;;;;;10254001;28;20316;-83
2022/06/21 19:25:26;;;;;;;5.85;2.20;;;17.00;1.00;;;;;;10306813;28;20194;-83
2022/06/21 19:31:00;;;;;;;4.15;1.95;;;16.90;1.00;;;;;;10290447;28;20545;-84
2022/06/21 19:36:46;;;;;;;4.00;1.98;;;16.80;1.00;;;;;;10290704;28;20494;-83
2022/06/21 19:42:38;;;;;;;3.05;2.03;;;16.70;1.00;;;;;;10276194;28;20202;-83
2022/06/21 19:48:05;;;;;;;4.47;2.20;;;16.60;1.00;;;;;;10320790;28;20227;-82
2022/06/21 19:53:37;;;;;;;3.92;1.85;;;16.50;1.00;;;;;;10308398;28;20201;-83
2022/06/21 19:58:58;;;;;;;4.13;1.80;;;16.30;1.00;;;;;;10290802;28;20245;-83
2022/06/21 20:04:47;;;;;;;2.90;1.80;;;16.30;1.00;;;;;;10291370;28;20205;-83
2022/06/21 20:10:20;;;;;;;4.00;1.88;;;16.20;1.00;;;;;;10306513;28;20226;-82
2022/06/21 20:16:12;;;;;;;4.57;1.73;;;16.10;1.00;;;;;;10305666;28;20197;-82
2022/06/21 20:21:57;;;;;;;3.25;1.85;;;16.10;1.00;;;;;;10307908;28;20368;-82
2022/06/21 20:27:30;;;;;;;3.80;1.95;;;16.00;1.00;;;;;;10305612;28;20197;-82
2022/06/21 20:33:00;;;;;;;6.00;2.50;;;15.80;1.00;;;;;;10277994;29;20241;-82
2022/06/21 20:38:33;;;;;;;8.15;2.50;;;15.70;1.00;;;;;;10278209;29;20196;-83
2022/06/21 20:44:12;;;;;;;4.32;1.83;;;15.70;1.00;;;;;;10277502;29;20198;-82
2022/06/21 20:50:17;;;;;;;3.35;1.70;;;15.60;1.00;;;;;;10250862;29;20229;-82
2022/06/21 20:56:08;;;;;;;3.67;1.83;;;15.50;1.00;;;;;;10251073;29;20218;-82
2022/06/21 21:01:57;;;;;;;5.32;2.25;;;15.50;1.00;;;;;;10246673;29;20202;-82
2022/06/21 21:07:21;;;;;;;4.40;1.75;;;15.50;1.00;;;;;;10252513;28;20228;-82
2022/06/21 21:12:51;;;;;;;4.63;1.83;;;15.40;1.00;;;;;;10279915;28;20497;-82
2022/06/21 21:18:20;;;;;;;3.63;1.55;;;15.30;2.40;;;;;;10282680;28;20500;-83
2022/06/21 21:23:46;;;;;;;7.95;2.35;;;15.20;13.70;;;;;;10239214;29;20445;-82
2022/06/21 21:29:10;;;;;;;5.47;1.98;;;15.20;21.20;;;;;;10231263;28;20225;-83
2022/06/21 21:34:53;;;;;;;7.05;2.15;;;15.00;36.10;;;;;;10302454;28;20202;-83
2022/06/21 21:40:47;;;;;;;6.07;2.78;;;15.00;39.30;;;;;;10285959;28;20197;-82
2022/06/21 21:46:15;;;;;;;4.75;2.00;;;14.90;57.80;;;;;;10192316;29;20213;-82
2022/06/21 21:51:52;;;;;;;5.40;2.75;;;14.80;65.90;;;;;;10178361;29;20230;-82
2022/06/21 21:57:20;;;;;;;5.03;2.10;;;14.70;81.60;;;;;;10164773;29;20211;-82
2022/06/21 22:03:01;;;;;;;5.78;2.75;;;14.70;93.90;;;;;;10164536;29;20408;-82
2022/06/21 22:08:23;;;;;;;4.07;2.13;;;14.60;97.40;;;;;;10196166;29;20289;-84
2022/06/21 22:13:56;;;;;;;6.13;3.10;;;14.50;99.90;;;;;;10180499;29;20206;-82
2022/06/21 22:19:59;;;;;;;8.10;3.17;;;14.50;99.90;;;;;;10176554;28;20507;-82
2022/06/21 22:25:25;;;;;;;10.98;2.95;;;14.40;99.90;;;;;;10297992;28;20283;-81
2022/06/21 22:30:47;;;;;;;7.63;2.90;;;14.30;99.90;;;;;;10297567;28;20250;-81
2022/06/21 22:36:13;;;;;;;8.77;2.53;;;14.30;99.90;;;;;;10284778;28;20201;-82
2022/06/21 22:41:35;;;;;;;5.03;2.88;;;14.30;99.90;;;;;;10271162;28;20199;-82
2022/06/21 22:46:57;;;;;;;6.00;2.50;;;14.20;99.90;;;;;;10300242;28;20203;-81
2022/06/21 22:52:29;;;;;;;8.32;2.95;;;14.10;99.90;;;;;;10283923;28;20224;-82
2022/06/21 22:57:59;;;;;;;8.82;3.22;;;14.10;99.90;;;;;;10284092;28;20287;-82
2022/06/21 23:03:27;;;;;;;8.40;3.33;;;14.00;99.90;;;;;;10301292;28;20200;-82
2022/06/21 23:08:49;;;;;;;3.88;2.88;;;14.00;99.90;;;;;;10284842;28;20238;-82
2022/06/21 23:14:13;;;;;;;7.50;3.47;;;13.90;99.90;;;;;;10283801;28;20218;-84
2022/06/21 23:19:35;;;;;;;8.68;3.35;;;13.90;99.90;;;;;;10270538;28;20200;-82
2022/06/21 23:24:57;;;;;;;7.68;4.05;;;13.80;99.90;;;;;;10283959;28;20207;-82
2022/06/21 23:30:23;;;;;;;7.63;3.17;;;13.80;99.90;;;;;;10283117;28;20564;-84
2022/06/21 23:35:49;;;;;;;5.15;3.47;;;13.80;99.90;;;;;;10251556;29;20276;-83
2022/06/21 23:41:16;;;;;;;9.38;3.30;;;13.70;99.90;;;;;;10285183;28;20200;-84
2022/06/21 23:46:52;;;;;;;4.72;2.78;;;13.70;99.90;;;;;;10314248;28;20445;-84
2022/06/21 23:52:30;;;;;;;4.85;2.90;;;13.70;99.90;;;;;;10263332;28;20295;-84
2022/06/21 23:57:55;;;;;;;6.15;3.25;;;13.70;99.90;;;;;;10276799;28;20574;-84
